createdAt,value
2022-12-04T00:01:24.232Z,1.66
2022-12-04T00:03:56.221Z,1.53
2022-12-04T00:06:23.437Z,1.47
2022-12-04T00:08:51.334Z,1.54
2022-12-04T00:11:22.312Z,1.56
2022-12-04T00:13:49.514Z,1.56
2022-12-04T00:16:19.934Z,1.71
2022-12-04T00:18:47.295Z,1.80
2022-12-04T00:21:16.007Z,1.63
2022-12-04T00:23:43.821Z,1.66
2022-12-04T00:26:16.934Z,1.66
2022-12-04T00:28:44.552Z,1.61
2022-12-04T00:31:15.238Z,1.68
2022-12-04T00:33:42.593Z,1.67
2022-12-04T00:36:12.374Z,1.72
2022-12-04T00:38:40.313Z,1.58
2022-12-04T00:41:16.155Z,1.69
2022-12-04T00:43:44.632Z,1.71
2022-12-04T00:46:11.822Z,1.55
2022-12-04T00:48:39.326Z,1.59
2022-12-04T00:51:08.668Z,1.47
2022-12-04T00:53:37.299Z,1.54
2022-12-04T00:56:10.686Z,1.61
2022-12-04T00:58:37.958Z,1.50
2022-12-04T01:01:10.593Z,1.68
2022-12-04T01:03:41.330Z,1.60
2022-12-04T01:06:18.616Z,1.63
2022-12-04T01:08:47.441Z,1.56
2022-12-04T01:11:15.227Z,1.73
2022-12-04T01:13:42.164Z,1.52
2022-12-04T01:16:09.237Z,1.58
2022-12-04T01:18:36.165Z,1.61
2022-12-04T01:21:05.598Z,1.56
2022-12-04T01:23:32.609Z,1.61
2022-12-04T01:25:59.575Z,1.56
2022-12-04T01:28:26.800Z,1.64
2022-12-04T01:31:11.731Z,1.65
2022-12-04T01:33:39.925Z,1.63
2022-12-04T01:36:10.296Z,1.64
2022-12-04T01:38:37.412Z,1.48
2022-12-04T01:41:05.046Z,1.65
2022-12-04T01:43:34.159Z,1.67
2022-12-04T01:46:02.553Z,1.74
2022-12-04T01:48:50.592Z,1.78
2022-12-04T01:51:18.913Z,1.62
2022-12-04T01:53:59.466Z,1.70
2022-12-04T01:56:37.192Z,1.54
2022-12-04T01:59:06.750Z,1.62
2022-12-04T02:01:40.767Z,1.60
2022-12-04T02:04:07.803Z,1.73
2022-12-04T02:06:34.697Z,1.71
2022-12-04T02:09:01.796Z,1.62
2022-12-04T02:11:34.831Z,1.66
2022-12-04T02:14:14.971Z,1.66
2022-12-04T02:16:55.191Z,1.67
2022-12-04T02:19:40.439Z,1.67
2022-12-04T02:22:24.143Z,1.75
2022-12-04T02:25:05.295Z,1.68
2022-12-04T02:27:52.238Z,1.76
2022-12-04T02:30:19.126Z,1.84
2022-12-04T02:33:07.405Z,1.75
2022-12-04T02:35:42.743Z,1.76
2022-12-04T02:38:21.175Z,1.70
2022-12-04T02:41:05.950Z,1.70
2022-12-04T02:43:49.366Z,1.63
2022-12-04T02:46:26.442Z,1.85
2022-12-04T02:48:58.135Z,1.86
2022-12-04T02:51:28.960Z,1.83
2022-12-04T02:53:59.932Z,1.78
2022-12-04T02:56:30.712Z,1.85
2022-12-04T02:59:02.352Z,1.91
2022-12-04T03:01:37.053Z,1.90
2022-12-04T03:04:25.774Z,1.90
2022-12-04T03:07:05.831Z,1.90
2022-12-04T03:09:39.160Z,1.95
2022-12-04T03:12:19.919Z,2.01
2022-12-04T03:15:03.012Z,1.88
2022-12-04T03:17:39.604Z,1.81
2022-12-04T03:20:11.234Z,1.89
2022-12-04T03:22:41.864Z,1.89
2022-12-04T03:25:09.681Z,2.12
2022-12-04T03:27:51.870Z,1.96
2022-12-04T03:30:22.078Z,2.00
2022-12-04T03:33:05.066Z,1.95
2022-12-04T03:35:40.917Z,1.88
2022-12-04T03:38:19.795Z,1.92
2022-12-04T03:41:03.532Z,1.90
2022-12-04T03:43:50.819Z,1.97
2022-12-04T03:46:28.136Z,2.03
2022-12-04T03:49:19.244Z,2.04
2022-12-04T03:51:55.724Z,2.08
2022-12-04T03:54:35.311Z,2.08
2022-12-04T03:57:15.715Z,2.09
2022-12-04T03:59:53.901Z,2.04
2022-12-04T04:02:28.390Z,2.07
2022-12-04T04:04:58.942Z,2.06
2022-12-04T04:07:42.591Z,2.16
2022-12-04T04:10:29.957Z,2.37
2022-12-04T04:13:20.728Z,2.30
2022-12-04T04:16:14.096Z,2.08
2022-12-04T04:19:01.407Z,2.13
2022-12-04T04:21:52.224Z,2.19
2022-12-04T04:24:36.684Z,2.23
2022-12-04T04:27:04.086Z,2.22
2022-12-04T04:29:31.287Z,2.19
2022-12-04T04:32:14.258Z,2.34
2022-12-04T04:34:40.899Z,2.27
2022-12-04T04:37:36.776Z,2.28
2022-12-04T04:40:26.098Z,2.31
2022-12-04T04:43:11.298Z,2.33
2022-12-04T04:45:47.404Z,2.40
2022-12-04T04:48:29.539Z,2.32
2022-12-04T04:50:58.312Z,2.31
2022-12-04T04:53:30.718Z,2.33
2022-12-04T04:55:58.757Z,2.37
2022-12-04T04:58:25.540Z,2.35
2022-12-04T05:01:22.635Z,2.40
2022-12-04T05:03:49.602Z,2.38
2022-12-04T05:06:16.454Z,2.46
2022-12-04T05:08:44.321Z,2.29
2022-12-04T05:11:13.645Z,2.44
2022-12-04T05:13:40.855Z,2.39
2022-12-04T05:16:11.278Z,2.42
2022-12-04T05:18:38.882Z,2.44
2022-12-04T05:21:17.430Z,2.39
2022-12-04T05:23:44.503Z,2.48
2022-12-04T05:26:11.932Z,2.38
2022-12-04T05:28:40.874Z,2.63
2022-12-04T05:31:07.821Z,2.44
2022-12-04T05:33:34.665Z,2.51
2022-12-04T05:36:04.594Z,2.44
2022-12-04T05:38:32.557Z,2.31
2022-12-04T05:41:01.120Z,2.49
2022-12-04T05:43:28.801Z,2.50
2022-12-04T05:45:55.576Z,2.48
2022-12-04T05:48:22.360Z,2.41
2022-12-04T05:50:49.157Z,2.45
2022-12-04T05:53:16.197Z,2.51
2022-12-04T05:55:43.112Z,2.47
2022-12-04T05:58:10.014Z,2.34
2022-12-04T06:00:37.219Z,2.37
2022-12-04T06:03:04.064Z,2.54
2022-12-04T06:05:32.812Z,2.44
2022-12-04T06:08:01.100Z,2.53
2022-12-04T06:10:29.458Z,2.66
2022-12-04T06:15:40.021Z,2.64
2022-12-04T06:18:06.809Z,2.63
2022-12-04T06:20:34.295Z,2.67
2022-12-04T06:23:01.508Z,2.81
2022-12-04T06:25:28.586Z,2.70
2022-12-04T06:27:55.398Z,2.84
2022-12-04T06:30:23.113Z,2.85
2022-12-04T06:32:49.956Z,2.74
2022-12-04T06:35:17.025Z,2.74
2022-12-04T06:37:44.136Z,2.69
2022-12-04T06:40:11.517Z,2.86
2022-12-04T06:42:38.284Z,2.64
2022-12-04T06:45:06.497Z,2.71
2022-12-04T06:47:37.601Z,2.60
2022-12-04T06:50:05.124Z,2.66
2022-12-04T06:52:34.992Z,2.58
2022-12-04T06:55:01.943Z,2.59
2022-12-04T06:57:28.954Z,2.54
2022-12-04T06:59:55.995Z,2.65
2022-12-04T07:02:23.137Z,2.69
2022-12-04T07:04:49.986Z,2.77
2022-12-04T07:07:16.856Z,2.85
2022-12-04T07:09:44.301Z,2.78
2022-12-04T07:12:11.199Z,2.97
2022-12-04T07:14:38.102Z,2.90
2022-12-04T07:17:05.411Z,3.00
2022-12-04T07:19:32.405Z,2.99
2022-12-04T07:21:59.180Z,2.94
2022-12-04T07:24:25.915Z,3.06
2022-12-04T07:26:52.955Z,3.17
2022-12-04T07:29:19.766Z,3.18
2022-12-04T07:31:46.675Z,3.28
2022-12-04T07:34:13.597Z,3.14
2022-12-04T07:36:40.935Z,3.18
2022-12-04T07:39:08.166Z,3.21
2022-12-04T07:41:35.540Z,3.23
2022-12-04T07:44:02.750Z,3.25
2022-12-04T07:46:29.573Z,3.42
2022-12-04T07:48:58.130Z,3.38
2022-12-04T07:51:29.067Z,3.34
2022-12-04T07:54:02.690Z,3.46
2022-12-04T07:56:30.889Z,3.55
2022-12-04T07:58:57.710Z,3.43
2022-12-04T08:01:24.772Z,3.47
2022-12-04T08:03:55.594Z,3.47
2022-12-04T08:06:24.291Z,3.69
2022-12-04T08:08:51.894Z,3.66
2022-12-04T08:11:22.260Z,3.73
2022-12-04T08:13:53.508Z,3.55
2022-12-04T08:16:20.514Z,3.74
2022-12-04T08:18:48.674Z,3.81
2022-12-04T08:21:20.857Z,3.85
2022-12-04T08:23:49.628Z,3.90
2022-12-04T08:26:17.094Z,4.03
2022-12-04T08:28:44.240Z,4.00
2022-12-04T08:31:21.642Z,4.06
2022-12-04T08:33:50.783Z,3.91
2022-12-04T08:36:20.614Z,3.95
2022-12-04T08:38:48.667Z,4.00
2022-12-04T08:41:17.886Z,4.09
2022-12-04T08:43:45.364Z,4.13
2022-12-04T08:46:15.152Z,4.04
2022-12-04T08:48:43.556Z,4.03
2022-12-04T08:51:16.188Z,4.22
2022-12-04T08:53:47.359Z,4.25
2022-12-04T08:56:14.848Z,4.06
2022-12-04T08:58:41.617Z,4.31
2022-12-04T09:01:11.549Z,4.29
2022-12-04T09:03:38.895Z,4.29
2022-12-04T09:06:06.795Z,4.16
2022-12-04T09:08:34.301Z,4.19
2022-12-04T09:11:14.747Z,4.23
2022-12-04T09:13:42.625Z,4.14
2022-12-04T09:16:15.411Z,4.15
2022-12-04T09:18:42.686Z,4.37
2022-12-04T09:21:11.691Z,4.24
2022-12-04T09:23:39.778Z,4.25
2022-12-04T09:26:18.735Z,4.43
2022-12-04T09:28:46.480Z,4.47
2022-12-04T09:31:13.249Z,4.58
2022-12-04T09:33:40.147Z,4.42
2022-12-04T09:36:16.112Z,4.55
2022-12-04T09:38:48.043Z,4.57
2022-12-04T09:41:33.328Z,4.50
2022-12-04T09:44:24.618Z,4.58
2022-12-04T09:47:00.398Z,4.63
2022-12-04T09:50:05.782Z,4.63
2022-12-04T09:52:49.054Z,4.52
2022-12-04T09:55:26.146Z,4.58
2022-12-04T09:58:01.595Z,4.64
2022-12-04T10:00:30.119Z,4.77
2022-12-04T10:03:03.972Z,4.73
2022-12-04T10:05:49.046Z,4.71
2022-12-04T10:08:34.677Z,4.75
2022-12-04T10:11:10.407Z,4.90
2022-12-04T10:13:52.286Z,4.91
2022-12-04T10:16:57.462Z,5.03
2022-12-04T10:19:42.382Z,5.18
2022-12-04T10:22:46.573Z,5.15
2022-12-04T10:25:21.096Z,5.20
2022-12-04T10:28:11.125Z,5.28
2022-12-04T10:30:43.000Z,5.53
2022-12-04T10:33:09.624Z,5.58
2022-12-04T10:35:37.996Z,5.56
2022-12-04T10:38:12.667Z,5.62
2022-12-04T10:40:50.639Z,5.73
2022-12-04T10:43:35.951Z,5.63
2022-12-04T10:46:02.885Z,5.56
2022-12-04T10:48:36.015Z,5.57
2022-12-04T10:51:03.018Z,5.43
2022-12-04T10:53:32.641Z,5.43
2022-12-04T10:56:28.913Z,5.52
2022-12-04T10:59:01.414Z,5.43
2022-12-04T11:01:30.985Z,5.44
2022-12-04T11:04:22.794Z,5.42
2022-12-04T11:06:52.879Z,5.39
2022-12-04T11:09:24.280Z,5.36
2022-12-04T11:11:52.141Z,5.37
2022-12-04T11:14:22.790Z,5.30
2022-12-04T11:17:01.817Z,5.39
2022-12-04T11:19:31.443Z,5.36
2022-12-04T11:22:13.022Z,5.30
2022-12-04T11:24:42.710Z,5.31
2022-12-04T11:27:22.703Z,5.21
2022-12-04T11:29:50.360Z,5.21
2022-12-04T11:32:22.793Z,5.22
2022-12-04T11:34:52.610Z,5.12
2022-12-04T11:37:25.269Z,5.27
2022-12-04T11:39:54.059Z,5.20
2022-12-04T11:42:29.529Z,5.14
2022-12-04T11:44:58.821Z,5.14
2022-12-04T11:47:28.657Z,5.22
2022-12-04T11:50:04.319Z,5.13
2022-12-04T11:53:05.580Z,5.15
2022-12-04T11:55:46.262Z,5.22
2022-12-04T11:58:31.808Z,5.27
2022-12-04T12:01:30.980Z,5.34
2022-12-04T12:04:19.332Z,5.24
2022-12-04T12:07:12.195Z,5.22
2022-12-04T12:09:55.721Z,5.35
2022-12-04T12:13:09.989Z,5.38
2022-12-04T12:15:51.092Z,5.31
2022-12-04T12:18:47.448Z,5.31
2022-12-04T12:21:33.047Z,5.37
2022-12-04T12:24:24.641Z,5.38
2022-12-04T12:27:06.718Z,5.34
2022-12-04T12:30:10.618Z,5.47
2022-12-04T12:32:46.321Z,5.59
2022-12-04T12:35:40.163Z,5.45
2022-12-04T12:38:11.769Z,5.39
2022-12-04T12:40:47.531Z,5.62
2022-12-04T12:43:23.111Z,5.63
2022-12-04T12:46:01.551Z,5.62
2022-12-04T12:48:59.042Z,5.50
2022-12-04T12:51:43.817Z,5.61
2022-12-04T12:54:41.610Z,5.48
2022-12-04T12:57:25.088Z,5.64
2022-12-04T12:59:57.445Z,5.66
2022-12-04T13:02:48.859Z,5.53
2022-12-04T13:05:21.829Z,5.63
2022-12-04T13:08:03.932Z,5.71
2022-12-04T13:10:40.431Z,5.68
2022-12-04T13:13:15.884Z,5.72
2022-12-04T13:16:08.974Z,5.83
2022-12-04T13:19:15.517Z,5.76
2022-12-04T13:22:06.282Z,5.87
2022-12-04T13:24:44.867Z,5.72
2022-12-04T13:27:22.071Z,5.66
2022-12-04T13:30:20.829Z,5.77
2022-12-04T13:36:27.895Z,5.98
2022-12-04T13:39:22.669Z,5.79
2022-12-04T13:41:58.919Z,5.82
2022-12-04T13:44:27.415Z,5.96
2022-12-04T13:47:03.333Z,5.82
2022-12-04T13:49:33.797Z,5.75
2022-12-04T13:52:04.143Z,5.81
2022-12-04T13:54:36.804Z,5.95
2022-12-04T13:57:12.630Z,5.85
2022-12-04T13:59:40.594Z,5.83
2022-12-04T14:02:37.420Z,5.81
2022-12-04T14:05:07.712Z,5.77
2022-12-04T14:07:40.416Z,5.81
2022-12-04T14:13:23.622Z,5.91
2022-12-04T14:16:04.813Z,5.82
2022-12-04T14:18:31.756Z,5.86
2022-12-04T14:21:05.916Z,5.81
2022-12-04T14:23:39.659Z,5.62
2022-12-04T14:26:37.388Z,5.71
2022-12-04T14:29:27.978Z,5.87
2022-12-04T14:31:57.853Z,5.83
2022-12-04T14:34:29.472Z,5.82
2022-12-04T14:36:57.873Z,5.76
2022-12-04T14:39:29.456Z,5.93
2022-12-04T14:42:13.995Z,6.00
2022-12-04T14:44:41.636Z,5.90
2022-12-04T14:47:38.363Z,5.86
2022-12-04T14:50:39.643Z,5.92
2022-12-04T14:53:35.101Z,5.90
2022-12-04T14:56:10.971Z,5.96
2022-12-04T14:58:39.290Z,5.78
2022-12-04T15:01:23.950Z,5.69
2022-12-04T15:03:57.023Z,5.91
2022-12-04T15:06:29.927Z,5.90
2022-12-04T15:09:19.818Z,5.81
2022-12-04T15:12:10.727Z,6.00
2022-12-04T15:14:48.797Z,6.05
2022-12-04T15:17:18.935Z,6.02
2022-12-04T15:19:46.131Z,6.02
2022-12-04T15:22:29.261Z,5.97
2022-12-04T15:24:59.333Z,6.05
2022-12-04T15:27:32.402Z,6.06
2022-12-04T15:30:03.181Z,6.02
2022-12-04T15:32:32.673Z,6.01
2022-12-04T15:35:06.066Z,6.07
2022-12-04T15:37:34.235Z,6.02
2022-12-04T15:40:07.259Z,6.07
2022-12-04T15:42:34.410Z,5.87
2022-12-04T15:45:21.933Z,5.90
2022-12-04T15:47:48.913Z,5.90
2022-12-04T15:50:27.643Z,5.99
2022-12-04T15:53:07.056Z,6.00
2022-12-04T15:55:49.691Z,5.98
2022-12-04T15:58:33.270Z,6.05
2022-12-04T16:01:10.525Z,5.97
2022-12-04T16:03:43.613Z,6.11
2022-12-04T16:06:13.480Z,6.09
2022-12-04T16:08:42.344Z,5.95
2022-12-04T16:11:18.061Z,5.91
2022-12-04T16:13:44.825Z,6.05
2022-12-04T16:16:15.751Z,6.15
2022-12-04T16:18:43.583Z,6.12
2022-12-04T16:21:19.052Z,6.13
2022-12-04T16:23:46.298Z,6.07
2022-12-04T16:26:14.731Z,6.12
2022-12-04T16:28:41.951Z,6.14
2022-12-04T16:31:13.902Z,6.10
2022-12-04T16:33:41.040Z,6.13
2022-12-04T16:36:11.174Z,6.01
2022-12-04T16:38:38.071Z,6.04
2022-12-04T16:41:05.634Z,6.06
2022-12-04T16:43:32.535Z,6.02
2022-12-04T16:46:01.447Z,6.06
2022-12-04T16:48:29.699Z,5.97
2022-12-04T16:50:56.487Z,5.96
2022-12-04T16:53:23.400Z,5.93
2022-12-04T16:55:51.563Z,5.87
2022-12-04T16:58:19.739Z,5.94
2022-12-04T17:00:54.108Z,5.90
2022-12-04T17:03:33.173Z,5.91
2022-12-04T17:06:01.113Z,5.88
2022-12-04T17:08:28.543Z,5.94
2022-12-04T17:10:55.806Z,5.90
2022-12-04T17:13:23.176Z,5.86
2022-12-04T17:15:50.154Z,5.91
2022-12-04T17:18:21.042Z,5.80
2022-12-04T17:20:48.572Z,5.89
2022-12-04T17:23:15.592Z,5.88
2022-12-04T17:25:42.346Z,5.97
2022-12-04T17:28:09.309Z,5.83
2022-12-04T17:30:36.656Z,5.91
2022-12-04T17:33:04.727Z,5.89
2022-12-04T17:35:31.773Z,5.87
2022-12-04T17:38:05.375Z,5.96
2022-12-04T17:40:33.257Z,5.86
2022-12-04T17:43:00.063Z,5.95
2022-12-04T17:45:26.871Z,5.89
2022-12-04T17:47:53.554Z,5.94
2022-12-04T17:50:20.339Z,5.93
2022-12-04T17:52:47.246Z,5.95
2022-12-04T17:55:14.155Z,5.97
2022-12-04T17:57:41.048Z,5.98
2022-12-04T18:00:08.535Z,5.95
2022-12-04T18:02:36.291Z,5.99
2022-12-04T18:05:03.484Z,5.89
2022-12-04T18:07:31.070Z,5.90
2022-12-04T18:09:58.042Z,5.93
2022-12-04T18:12:38.401Z,5.86
2022-12-04T18:15:05.849Z,5.98
2022-12-04T18:17:32.656Z,5.97
2022-12-04T18:20:04.149Z,6.00
2022-12-04T18:22:31.572Z,6.02
2022-12-04T18:24:58.511Z,6.09
2022-12-04T18:27:25.368Z,6.06
2022-12-04T18:29:52.094Z,6.16
2022-12-04T18:32:18.867Z,6.10
2022-12-04T18:34:45.644Z,6.08
2022-12-04T18:37:12.363Z,6.19
2022-12-04T18:39:39.083Z,6.17
2022-12-04T18:42:05.888Z,6.10
2022-12-04T18:44:32.632Z,6.16
2022-12-04T18:46:59.350Z,6.24
2022-12-04T18:49:26.099Z,6.26
2022-12-04T18:51:52.844Z,6.21
2022-12-04T18:54:22.798Z,6.19
2022-12-04T18:56:49.882Z,6.21
2022-12-04T18:59:19.556Z,6.12
2022-12-04T19:01:46.298Z,6.21
2022-12-04T19:04:14.608Z,6.26
2022-12-04T19:06:45.915Z,6.18
2022-12-04T19:09:17.016Z,6.21
2022-12-04T19:11:44.386Z,6.14
2022-12-04T19:14:22.283Z,6.21
2022-12-04T19:16:49.754Z,6.21
2022-12-04T19:19:16.897Z,6.12
2022-12-04T19:21:44.456Z,6.13
2022-12-04T19:24:11.886Z,6.10
2022-12-04T19:26:39.214Z,6.19
2022-12-04T19:29:07.046Z,6.22
2022-12-04T19:31:35.448Z,6.25
2022-12-04T19:34:02.803Z,6.21
2022-12-04T19:36:31.276Z,6.14
2022-12-04T19:38:58.878Z,6.18
2022-12-04T19:41:30.105Z,6.17
2022-12-04T19:44:00.103Z,6.21
2022-12-04T19:46:30.411Z,6.18
2022-12-04T19:49:01.890Z,6.15
2022-12-04T19:51:32.138Z,6.11
2022-12-04T19:53:59.960Z,6.03
2022-12-04T19:56:29.073Z,6.13
2022-12-04T19:58:58.633Z,6.11
2022-12-04T20:01:28.718Z,6.12
2022-12-04T20:03:56.846Z,6.12
2022-12-04T20:06:27.242Z,6.20
2022-12-04T20:09:00.016Z,6.16
2022-12-04T20:11:28.918Z,6.17
2022-12-04T20:13:56.906Z,6.15
2022-12-04T20:16:25.577Z,6.11
2022-12-04T20:18:53.242Z,6.13
2022-12-04T20:21:21.287Z,6.10
2022-12-04T20:23:50.619Z,6.13
2022-12-04T20:26:25.942Z,6.09
2022-12-04T20:28:56.688Z,6.04
2022-12-04T20:31:29.528Z,6.09
2022-12-04T20:33:58.100Z,6.21
2022-12-04T20:36:27.250Z,6.11
2022-12-04T20:38:58.075Z,6.17
2022-12-04T20:41:26.579Z,6.16
2022-12-04T20:43:53.384Z,6.10
2022-12-04T20:46:21.772Z,6.16
2022-12-04T20:48:49.735Z,6.29
2022-12-04T20:51:28.478Z,6.23
2022-12-04T20:53:58.130Z,6.18
2022-12-04T20:56:29.674Z,6.27
2022-12-04T20:58:57.921Z,6.26
2022-12-04T21:01:25.563Z,6.28
2022-12-04T21:03:53.293Z,6.34
2022-12-04T21:06:23.324Z,6.15
2022-12-04T21:08:53.912Z,6.25
2022-12-04T21:11:22.535Z,6.24
2022-12-04T21:14:07.871Z,6.17
2022-12-04T21:16:34.930Z,6.14
2022-12-04T21:19:03.479Z,6.19
2022-12-04T21:21:30.241Z,6.10
2022-12-04T21:23:57.131Z,6.13
2022-12-04T21:26:23.919Z,6.05
2022-12-04T21:28:50.761Z,6.12
2022-12-04T21:31:17.580Z,6.10
2022-12-04T21:33:44.278Z,6.09
2022-12-04T21:36:11.202Z,6.02
2022-12-04T21:38:39.604Z,6.09
2022-12-04T21:41:08.288Z,6.03
2022-12-04T21:43:36.920Z,6.08
2022-12-04T21:46:09.427Z,6.11
2022-12-04T21:48:37.175Z,6.02
2022-12-04T21:51:21.228Z,6.02
2022-12-04T21:53:55.464Z,6.06
2022-12-04T21:56:23.051Z,6.09
2022-12-04T21:58:50.949Z,6.14
2022-12-04T22:01:19.659Z,6.07
2022-12-04T22:03:48.671Z,6.03
2022-12-04T22:06:15.404Z,6.12
2022-12-04T22:08:42.411Z,6.14
2022-12-04T22:11:11.147Z,6.13
2022-12-04T22:13:39.168Z,6.03
2022-12-04T22:16:08.895Z,6.03
2022-12-04T22:18:36.358Z,6.14
2022-12-04T22:21:09.765Z,6.05
2022-12-04T22:23:37.368Z,6.02
2022-12-04T22:26:12.602Z,6.06
2022-12-04T22:28:40.053Z,6.04
2022-12-04T22:31:09.549Z,5.96
2022-12-04T22:33:36.734Z,6.02
2022-12-04T22:36:06.415Z,5.97
2022-12-04T22:38:42.470Z,6.06
2022-12-04T22:41:21.556Z,5.96
2022-12-04T22:43:48.853Z,6.03
2022-12-04T22:46:16.459Z,5.98
2022-12-04T22:48:44.440Z,5.93
2022-12-04T22:51:13.979Z,5.97
2022-12-04T22:53:49.617Z,6.02
2022-12-04T22:56:20.214Z,5.97
2022-12-04T22:58:47.122Z,5.97
2022-12-04T23:01:19.554Z,6.03
2022-12-04T23:03:47.519Z,6.03
2022-12-04T23:06:16.572Z,5.94
2022-12-04T23:08:44.279Z,5.92
2022-12-04T23:11:17.690Z,6.02
2022-12-04T23:13:49.692Z,5.97
2022-12-04T23:16:20.129Z,5.92
2022-12-04T23:18:47.819Z,5.99
2022-12-04T23:21:16.016Z,5.90
2022-12-04T23:23:44.613Z,5.87
2022-12-04T23:26:14.934Z,5.92
2022-12-04T23:28:42.457Z,5.94
2022-12-04T23:31:10.819Z,5.90
2022-12-04T23:33:38.746Z,5.91
2022-12-04T23:36:06.966Z,5.83
2022-12-04T23:38:36.165Z,5.94
2022-12-04T23:41:02.952Z,5.96
2022-12-04T23:43:29.732Z,5.99
2022-12-04T23:45:56.745Z,5.98
2022-12-04T23:48:24.131Z,5.88
2022-12-04T23:50:51.327Z,5.87
2022-12-04T23:53:18.843Z,5.89
2022-12-04T23:55:54.806Z,5.90
2022-12-04T23:58:21.592Z,5.95
